createdAt,value
2018-06-17T00:00:45.450Z,57.07
2018-06-17T00:03:13.499Z,58.83
2018-06-17T00:05:42.231Z,58.48
2018-06-17T00:08:10.493Z,57.72
2018-06-17T00:10:38.533Z,58.51
2018-06-17T00:13:06.805Z,57.98
2018-06-17T00:15:35.335Z,59.04
2018-06-17T00:18:03.514Z,59.16
2018-06-17T00:20:31.621Z,57.97
2018-06-17T00:22:59.827Z,58.07
2018-06-17T00:25:28.012Z,59.63
2018-06-17T00:27:56.212Z,58.62
2018-06-17T00:30:24.571Z,59.64
2018-06-17T00:32:53.006Z,59.37
2018-06-17T00:35:21.316Z,60.81
2018-06-17T00:37:49.505Z,59.94
2018-06-17T00:40:17.675Z,59.54
2018-06-17T00:42:46.675Z,60.06
2018-06-17T00:45:14.752Z,60.24
2018-06-17T00:47:42.834Z,59.55
2018-06-17T00:50:10.885Z,59.73
2018-06-17T00:52:38.991Z,61.22
2018-06-17T00:55:07.107Z,59.81
2018-06-17T00:57:45.636Z,60.35
2018-06-17T01:00:13.921Z,61.42
2018-06-17T01:02:42.392Z,61.59
2018-06-17T01:05:10.575Z,61.26
2018-06-17T01:07:38.657Z,61.59
2018-06-17T01:10:06.852Z,63.12
2018-06-17T01:12:35.561Z,61.71
2018-06-17T01:15:04.860Z,61.67
2018-06-17T01:17:35.443Z,62.14
2018-06-17T01:20:03.719Z,62.43
2018-06-17T01:22:32.732Z,62.26
2018-06-17T01:25:00.985Z,62.77
2018-06-17T01:27:29.086Z,63.25
2018-06-17T01:29:57.353Z,61.95
2018-06-17T01:32:25.425Z,62.13
2018-06-17T01:34:53.523Z,61.42
2018-06-17T01:37:21.829Z,61.80
2018-06-17T01:39:49.884Z,61.74
2018-06-17T01:42:18.022Z,62.68
2018-06-17T01:44:46.185Z,62.89
2018-06-17T01:47:14.303Z,62.53
2018-06-17T01:49:42.550Z,61.56
2018-06-17T01:52:10.613Z,61.94
2018-06-17T01:54:38.684Z,62.07
2018-06-17T01:57:06.760Z,62.37
2018-06-17T01:59:35.883Z,61.64
2018-06-17T02:02:03.928Z,62.23
2018-06-17T02:04:37.330Z,62.62
2018-06-17T02:09:14.135Z,62.10
2018-06-17T02:11:49.407Z,61.25
2018-06-17T02:14:22.973Z,59.93
2018-06-17T02:16:51.020Z,59.82
2018-06-17T02:19:19.431Z,60.57
2018-06-17T02:21:47.616Z,60.15
2018-06-17T02:24:16.039Z,60.69
2018-06-17T02:26:44.110Z,60.58
2018-06-17T02:29:12.150Z,60.01
2018-06-17T02:31:40.455Z,59.40
2018-06-17T02:34:08.649Z,59.24
2018-06-17T02:36:36.710Z,59.64
2018-06-17T02:39:06.786Z,59.42
2018-06-17T02:41:36.377Z,59.89
2018-06-17T02:44:04.595Z,60.49
2018-06-17T02:46:38.351Z,60.58
2018-06-17T02:49:12.228Z,60.21
2018-06-17T02:51:45.759Z,60.57
2018-06-17T02:54:19.189Z,61.37
2018-06-17T02:56:47.247Z,61.58
2018-06-17T02:59:15.572Z,61.43
2018-06-17T03:01:44.529Z,61.10
2018-06-17T03:04:12.680Z,61.84
2018-06-17T03:06:40.813Z,62.58
2018-06-17T03:09:09.926Z,62.17
2018-06-17T03:11:38.642Z,62.44
2018-06-17T03:14:07.297Z,61.85
2018-06-17T03:16:36.594Z,61.58
2018-06-17T03:19:05.029Z,61.11
2018-06-17T03:21:33.198Z,61.44
2018-06-17T03:24:01.346Z,61.78
2018-06-17T03:26:34.751Z,62.13
2018-06-17T03:29:08.156Z,62.43
2018-06-17T03:31:41.686Z,61.79
2018-06-17T03:34:09.983Z,62.38
2018-06-17T03:36:38.172Z,62.32
2018-06-17T03:39:07.938Z,61.50
2018-06-17T03:41:36.753Z,64.33
2018-06-17T03:44:04.919Z,64.32
2018-06-17T03:46:33.005Z,64.36
2018-06-17T03:49:01.123Z,66.45
2018-06-17T03:51:29.239Z,65.81
2018-06-17T03:53:57.433Z,66.17
2018-06-17T03:56:25.634Z,65.74
2018-06-17T03:58:54.282Z,63.80
2018-06-17T04:01:22.446Z,63.01
2018-06-17T04:03:50.521Z,63.33
2018-06-17T04:06:18.641Z,63.99
2018-06-17T04:08:46.841Z,63.57
2018-06-17T04:11:14.956Z,64.39
2018-06-17T04:13:43.119Z,63.16
2018-06-17T04:16:11.204Z,64.93
2018-06-17T04:18:39.467Z,64.81
2018-06-17T04:21:07.626Z,65.44
2018-06-17T04:23:36.723Z,64.28
2018-06-17T04:26:04.891Z,64.92
2018-06-17T04:28:32.971Z,66.00
2018-06-17T04:31:01.072Z,65.03
2018-06-17T04:33:29.159Z,65.96
2018-06-17T04:35:57.298Z,64.66
2018-06-17T04:38:25.872Z,65.80
2018-06-17T04:40:54.051Z,65.38
2018-06-17T04:43:22.212Z,65.69
2018-06-17T04:45:50.351Z,65.66
2018-06-17T04:48:18.464Z,65.42
2018-06-17T04:50:46.929Z,65.65
2018-06-17T04:53:15.139Z,66.14
2018-06-17T04:55:43.291Z,65.38
2018-06-17T04:58:11.498Z,64.67
2018-06-17T05:00:39.768Z,64.55
2018-06-17T05:03:07.813Z,65.88
2018-06-17T05:05:36.964Z,66.12
2018-06-17T05:08:05.361Z,64.49
2018-06-17T05:10:33.567Z,64.18
2018-06-17T05:13:01.800Z,64.46
2018-06-17T05:15:29.855Z,64.17
2018-06-17T05:17:57.934Z,63.43
2018-06-17T05:20:26.048Z,62.61
2018-06-17T05:22:54.092Z,62.47
2018-06-17T05:25:22.309Z,60.34
2018-06-17T05:27:50.386Z,59.58
2018-06-17T05:30:18.507Z,59.48
2018-06-17T05:32:46.614Z,59.40
2018-06-17T05:35:14.733Z,59.42
2018-06-17T05:37:42.962Z,58.66
2018-06-17T05:40:11.081Z,59.15
2018-06-17T05:42:39.307Z,59.78
2018-06-17T05:45:07.435Z,59.19
2018-06-17T05:47:35.563Z,59.96
2018-06-17T05:50:03.630Z,60.09
2018-06-17T05:52:31.761Z,58.80
2018-06-17T05:55:00.018Z,59.36
2018-06-17T05:57:28.096Z,58.62
2018-06-17T05:59:56.181Z,58.50
2018-06-17T06:02:24.253Z,58.02
2018-06-17T06:04:52.344Z,57.57
2018-06-17T06:07:20.404Z,56.55
2018-06-17T06:09:48.478Z,56.93
2018-06-17T06:12:16.612Z,57.73
2018-06-17T06:14:44.858Z,56.72
2018-06-17T06:17:13.050Z,56.23
2018-06-17T06:19:41.234Z,56.98
2018-06-17T06:22:09.433Z,56.31
2018-06-17T06:24:37.640Z,56.43
2018-06-17T06:27:05.724Z,55.14
2018-06-17T06:29:33.898Z,55.04
2018-06-17T06:32:01.995Z,53.84
2018-06-17T06:34:30.095Z,54.94
2018-06-17T06:36:58.326Z,53.90
2018-06-17T06:39:28.569Z,53.25
2018-06-17T06:41:56.622Z,52.99
2018-06-17T06:44:24.674Z,51.39
2018-06-17T06:46:52.783Z,50.94
2018-06-17T06:49:20.854Z,50.13
2018-06-17T06:51:48.931Z,51.29
2018-06-17T06:54:17.025Z,51.27
2018-06-17T06:56:45.091Z,49.92
2018-06-17T06:59:13.171Z,49.92
2018-06-17T07:01:52.587Z,50.38
2018-06-17T07:04:32.007Z,50.07
2018-06-17T07:07:11.552Z,50.06
2018-06-17T07:09:51.133Z,50.77
2018-06-17T07:12:19.182Z,51.39
2018-06-17T07:14:47.302Z,49.92
2018-06-17T07:17:26.725Z,50.10
2018-06-17T07:19:54.822Z,51.18
2018-06-17T07:22:22.905Z,50.64
2018-06-17T07:24:51.127Z,49.91
2018-06-17T07:27:30.659Z,51.06
2018-06-17T07:29:58.743Z,50.72
2018-06-17T07:32:26.856Z,49.37
2018-06-17T07:34:54.902Z,48.88
2018-06-17T07:37:23.019Z,48.43
2018-06-17T07:40:56.318Z,47.50
2018-06-17T07:43:24.531Z,47.73
2018-06-17T07:45:52.621Z,47.99
2018-06-17T07:49:36.019Z,46.51
2018-06-17T07:52:16.579Z,47.06
2018-06-17T07:54:45.063Z,46.82
2018-06-17T07:57:14.380Z,46.59
2018-06-17T07:59:42.472Z,46.97
2018-06-17T08:02:12.439Z,47.42
2018-06-17T08:04:40.700Z,46.44
2018-06-17T08:07:08.989Z,45.55
2018-06-17T08:09:37.928Z,45.64
2018-06-17T08:12:06.171Z,45.18
2018-06-17T08:14:34.313Z,45.76
2018-06-17T08:17:02.444Z,44.57
2018-06-17T08:19:30.783Z,45.65
2018-06-17T08:21:59.611Z,45.37
2018-06-17T08:24:28.182Z,44.35
2018-06-17T08:26:56.701Z,44.72
2018-06-17T08:29:25.346Z,45.51
2018-06-17T08:31:53.858Z,43.96
2018-06-17T08:34:22.130Z,43.45
2018-06-17T08:36:50.210Z,43.22
2018-06-17T08:39:19.486Z,42.48
2018-06-17T08:41:47.555Z,42.22
2018-06-17T08:44:16.296Z,42.79
2018-06-17T08:46:45.194Z,42.51
2018-06-17T08:49:13.678Z,42.79
2018-06-17T08:51:41.841Z,43.60
2018-06-17T08:54:09.932Z,43.52
2018-06-17T08:56:38.447Z,42.42
2018-06-17T08:59:06.558Z,42.14
2018-06-17T09:01:34.663Z,42.96
2018-06-17T09:04:02.757Z,41.81
2018-06-17T09:06:30.814Z,42.29
2018-06-17T09:08:59.057Z,41.92
2018-06-17T09:11:27.142Z,41.28
2018-06-17T09:13:55.803Z,41.92
2018-06-17T09:16:24.553Z,42.03
2018-06-17T09:18:53.123Z,41.80
2018-06-17T09:21:21.150Z,41.68
2018-06-17T09:23:49.207Z,42.04
2018-06-17T09:26:17.345Z,42.61
2018-06-17T09:28:45.530Z,42.54
2018-06-17T09:31:13.608Z,41.40
2018-06-17T09:33:42.894Z,40.84
2018-06-17T09:36:11.117Z,41.34
2018-06-17T09:38:39.410Z,40.19
2018-06-17T09:45:48.387Z,41.96
2018-06-17T09:48:17.092Z,42.38
2018-06-17T09:50:45.286Z,42.21
2018-06-17T09:53:13.381Z,40.94
2018-06-17T09:55:42.515Z,40.09
2018-06-17T09:58:10.704Z,38.45
2018-06-17T10:00:38.890Z,39.30
2018-06-17T10:03:06.920Z,39.60
2018-06-17T10:05:35.002Z,39.91
2018-06-17T10:08:03.099Z,39.82
2018-06-17T10:11:09.307Z,40.45
2018-06-17T10:13:40.727Z,40.84
2018-06-17T10:16:09.227Z,39.29
2018-06-17T10:18:37.286Z,39.25
2018-06-17T10:21:05.752Z,39.11
2018-06-17T10:23:33.837Z,39.83
2018-06-17T10:26:01.921Z,39.05
2018-06-17T10:28:32.163Z,39.40
2018-06-17T10:31:01.492Z,38.36
2018-06-17T10:33:29.704Z,38.36
2018-06-17T10:35:57.794Z,38.54
2018-06-17T10:38:26.302Z,37.50
2018-06-17T10:40:54.857Z,36.49
2018-06-17T10:43:24.836Z,37.00
2018-06-17T10:45:52.918Z,38.30
2018-06-17T10:48:21.243Z,38.42
2018-06-17T10:50:49.316Z,38.20
2018-06-17T10:53:17.368Z,37.53
2018-06-17T10:55:45.588Z,38.65
2018-06-17T10:58:13.581Z,38.45
2018-06-17T11:00:41.681Z,39.16
2018-06-17T11:03:09.804Z,39.66
2018-06-17T11:05:38.998Z,40.02
2018-06-17T11:08:06.969Z,40.01
2018-06-17T11:10:35.105Z,39.38
2018-06-17T11:13:03.317Z,38.42
2018-06-17T11:15:31.439Z,38.09
2018-06-17T11:17:59.514Z,37.42
2018-06-17T11:20:27.706Z,38.52
2018-06-17T11:22:56.009Z,38.61
2018-06-17T11:25:24.061Z,38.06
2018-06-17T11:27:52.274Z,38.99
2018-06-17T11:30:21.365Z,39.66
2018-06-17T11:32:49.479Z,38.53
2018-06-17T11:35:17.574Z,39.90
2018-06-17T11:37:45.635Z,38.96
2018-06-17T11:40:14.496Z,36.88
2018-06-17T11:42:43.005Z,36.78
2018-06-17T11:45:11.566Z,35.95
2018-06-17T11:47:39.693Z,36.19
2018-06-17T11:50:07.846Z,36.82
2018-06-17T11:52:35.995Z,38.00
2018-06-17T11:55:04.293Z,38.28
2018-06-17T11:57:32.383Z,35.53
2018-06-17T12:00:00.527Z,34.89
2018-06-17T12:02:28.642Z,36.00
2018-06-17T12:04:56.807Z,37.25
2018-06-17T12:07:25.079Z,33.63
2018-06-17T12:09:53.134Z,34.63
2018-06-17T12:12:21.313Z,33.09
2018-06-17T12:14:49.457Z,34.16
2018-06-17T12:17:17.568Z,32.48
2018-06-17T12:19:45.643Z,32.73
2018-06-17T12:22:13.784Z,33.03
2018-06-17T12:24:41.957Z,33.91
2018-06-17T12:27:10.046Z,33.90
2018-06-17T12:29:39.163Z,35.26
2018-06-17T12:32:07.270Z,35.23
2018-06-17T12:34:35.582Z,33.11
2018-06-17T12:37:03.822Z,33.47
2018-06-17T12:39:31.919Z,34.86
2018-06-17T12:42:00.171Z,34.86
2018-06-17T12:44:29.429Z,34.29
2018-06-17T12:46:57.495Z,33.68
2018-06-17T12:49:25.687Z,31.96
2018-06-17T12:51:53.814Z,34.12
2018-06-17T12:54:22.205Z,35.41
2018-06-17T12:56:50.259Z,32.29
2018-06-17T12:59:18.372Z,35.22
2018-06-17T13:01:46.617Z,31.60
2018-06-17T13:04:14.686Z,31.73
2018-06-17T13:06:42.857Z,30.68
2018-06-17T13:09:11.795Z,30.87
2018-06-17T13:11:40.026Z,33.07
2018-06-17T13:14:08.468Z,32.90
2018-06-17T13:16:36.752Z,28.58
2018-06-17T13:19:05.280Z,27.65
2018-06-17T13:21:33.666Z,27.26
2018-06-17T13:24:01.906Z,31.24
2018-06-17T13:26:30.196Z,31.73
2018-06-17T13:28:58.921Z,26.37
2018-06-17T13:31:27.000Z,26.43
2018-06-17T13:33:55.154Z,28.49
2018-06-17T13:36:23.278Z,28.06
2018-06-17T13:38:51.362Z,28.44
2018-06-17T13:41:19.542Z,29.24
2018-06-17T13:43:48.162Z,29.27
2018-06-17T13:46:16.325Z,29.83
2018-06-17T13:48:44.661Z,31.86
2018-06-17T13:51:13.966Z,32.23
2018-06-17T13:53:42.075Z,34.35
2018-06-17T13:56:10.294Z,32.96
2018-06-17T13:58:38.549Z,34.43
2018-06-17T14:01:06.698Z,34.39
2018-06-17T14:03:34.960Z,31.10
2018-06-17T14:06:03.001Z,32.61
2018-06-17T14:08:31.096Z,33.79
2018-06-17T14:10:59.346Z,34.42
2018-06-17T14:13:27.545Z,34.77
2018-06-17T14:15:55.537Z,37.49
2018-06-17T14:18:23.670Z,36.16
2018-06-17T14:20:51.779Z,37.04
2018-06-17T14:23:19.950Z,36.06
2018-06-17T14:25:48.025Z,36.35
2018-06-17T14:28:16.215Z,33.78
2018-06-17T14:30:44.435Z,35.47
2018-06-17T14:33:12.536Z,33.95
2018-06-17T14:35:40.637Z,34.63
2018-06-17T14:38:09.723Z,34.46
2018-06-17T14:40:43.125Z,34.14
2018-06-17T14:43:17.382Z,34.81
2018-06-17T14:45:50.927Z,35.62
2018-06-17T14:48:24.332Z,35.70
2018-06-17T14:50:58.705Z,35.58
2018-06-17T14:53:26.867Z,35.93
2018-06-17T14:55:54.975Z,35.89
2018-06-17T14:58:23.057Z,35.75
2018-06-17T15:00:51.149Z,36.34
2018-06-17T15:03:19.535Z,37.24
2018-06-17T15:05:47.650Z,36.73
2018-06-17T15:08:15.769Z,36.94
2018-06-17T15:10:43.901Z,37.50
2018-06-17T15:13:11.967Z,37.42
2018-06-17T15:15:40.101Z,37.08
2018-06-17T15:18:14.854Z,37.71
2018-06-17T15:20:42.850Z,36.63
2018-06-17T15:23:10.887Z,37.25
2018-06-17T15:25:39.958Z,36.96
2018-06-17T15:28:08.109Z,36.48
2018-06-17T15:30:36.175Z,37.26
2018-06-17T15:33:09.499Z,37.51
2018-06-17T15:35:43.106Z,38.64
2018-06-17T15:38:16.610Z,38.23
2018-06-17T15:40:50.097Z,39.16
2018-06-17T15:43:18.207Z,38.73
2018-06-17T15:45:46.492Z,38.50
2018-06-17T15:48:15.638Z,38.46
2018-06-17T15:50:43.838Z,39.52
2018-06-17T15:53:11.817Z,39.53
2018-06-17T15:55:40.092Z,39.22
2018-06-17T15:58:08.170Z,39.11
2018-06-17T16:00:36.659Z,39.40
2018-06-17T16:03:04.753Z,39.86
2018-06-17T16:05:32.871Z,40.67
2018-06-17T16:08:01.035Z,40.34
2018-06-17T16:10:29.624Z,40.23
2018-06-17T16:13:03.191Z,40.56
2018-06-17T16:15:36.782Z,39.82
2018-06-17T16:18:10.182Z,40.26
2018-06-17T16:20:43.710Z,39.63
2018-06-17T16:23:11.838Z,40.07
2018-06-17T16:25:40.578Z,40.36
2018-06-17T16:28:08.678Z,40.47
2018-06-17T16:30:36.727Z,40.37
2018-06-17T16:33:04.827Z,40.20
2018-06-17T16:35:32.878Z,41.02
2018-06-17T16:38:00.937Z,41.02
2018-06-17T16:40:29.077Z,40.12
2018-06-17T16:42:58.177Z,40.53
2018-06-17T16:45:26.447Z,40.66
2018-06-17T16:47:54.454Z,39.91
2018-06-17T16:50:22.640Z,40.59
2018-06-17T16:52:56.027Z,39.98
2018-06-17T16:55:29.484Z,40.50
2018-06-17T16:58:03.071Z,40.59
2018-06-17T17:00:31.209Z,40.29
2018-06-17T17:02:59.267Z,40.15
2018-06-17T17:05:27.651Z,41.32
2018-06-17T17:07:56.748Z,42.41
2018-06-17T17:10:24.831Z,42.08
2018-06-17T17:12:52.883Z,41.75
2018-06-17T17:15:21.007Z,40.44
2018-06-17T17:17:49.096Z,41.05
2018-06-17T17:20:17.354Z,41.70
2018-06-17T17:22:45.526Z,41.67
2018-06-17T17:25:13.690Z,41.29
2018-06-17T17:27:42.585Z,41.55
2018-06-17T17:30:10.858Z,42.00
2018-06-17T17:32:44.204Z,41.72
2018-06-17T17:35:17.634Z,41.85
2018-06-17T17:37:51.098Z,42.40
2018-06-17T17:40:24.528Z,43.16
2018-06-17T17:42:52.645Z,43.39
2018-06-17T17:45:22.810Z,43.64
2018-06-17T17:47:51.010Z,44.38
2018-06-17T17:50:19.057Z,44.69
2018-06-17T17:52:47.167Z,44.27
2018-06-17T17:55:15.411Z,44.52
2018-06-17T17:57:43.642Z,44.25
2018-06-17T18:00:11.707Z,43.85
2018-06-17T18:02:40.791Z,44.28
2018-06-17T18:05:09.149Z,43.84
2018-06-17T18:07:37.243Z,45.30
2018-06-17T18:10:05.359Z,44.77
2018-06-17T18:12:33.498Z,45.50
2018-06-17T18:15:01.659Z,44.78
2018-06-17T18:17:29.798Z,45.09
2018-06-17T18:19:57.917Z,44.83
2018-06-17T18:22:26.110Z,45.80
2018-06-17T18:24:59.656Z,45.62
2018-06-17T18:27:33.219Z,46.70
2018-06-17T18:30:06.773Z,46.34
2018-06-17T18:32:40.154Z,46.22
2018-06-17T18:35:13.693Z,46.69
2018-06-17T18:37:41.812Z,46.42
2018-06-17T18:40:10.968Z,46.66
2018-06-17T18:42:39.089Z,45.81
2018-06-17T18:45:07.243Z,46.33
2018-06-17T18:47:35.406Z,45.71
2018-06-17T18:50:03.452Z,45.95
2018-06-17T18:52:31.535Z,45.34
2018-06-17T18:54:59.629Z,45.36
2018-06-17T18:57:27.807Z,44.74
2018-06-17T18:59:56.122Z,44.93
2018-06-17T19:02:24.175Z,44.79
2018-06-17T19:04:52.719Z,45.12
2018-06-17T19:07:20.873Z,45.19
2018-06-17T19:09:54.383Z,44.80
2018-06-17T19:12:27.827Z,44.59
2018-06-17T19:15:01.412Z,46.02
2018-06-17T19:17:36.294Z,46.36
2018-06-17T19:20:04.568Z,46.26
2018-06-17T19:22:32.710Z,46.17
2018-06-17T19:25:00.783Z,47.60
2018-06-17T19:27:28.958Z,47.57
2018-06-17T19:29:57.159Z,47.46
2018-06-17T19:32:25.543Z,47.56
2018-06-17T19:34:53.725Z,47.62
2018-06-17T19:37:22.803Z,48.59
2018-06-17T19:39:50.860Z,48.11
2018-06-17T19:42:18.950Z,48.73
2018-06-17T19:44:47.011Z,48.64
2018-06-17T19:47:15.172Z,48.78
2018-06-17T19:49:48.644Z,48.52
2018-06-17T19:52:21.970Z,48.95
2018-06-17T19:54:55.378Z,49.38
2018-06-17T19:57:29.410Z,49.42
2018-06-17T20:00:02.918Z,49.49
2018-06-17T20:02:31.127Z,49.31
2018-06-17T20:04:59.181Z,49.61
2018-06-17T20:07:27.356Z,49.89
2018-06-17T20:09:55.432Z,49.50
2018-06-17T20:12:23.539Z,49.60
2018-06-17T20:14:52.178Z,49.26
2018-06-17T20:17:21.115Z,49.43
2018-06-17T20:19:49.128Z,49.31
2018-06-17T20:22:17.271Z,49.16
2018-06-17T20:24:45.343Z,49.39
2018-06-17T20:27:13.548Z,48.53
2018-06-17T20:29:41.697Z,49.47
2018-06-17T20:32:15.334Z,49.93
2018-06-17T20:34:48.800Z,50.28
2018-06-17T20:37:22.790Z,49.46
2018-06-17T20:40:55.818Z,50.28
2018-06-17T20:43:29.675Z,51.04
2018-06-17T20:45:58.107Z,50.97
2018-06-17T20:48:26.170Z,50.25
2018-06-17T20:50:54.635Z,49.82
2018-06-17T20:53:22.960Z,50.75
2018-06-17T20:55:51.010Z,51.57
2018-06-17T20:58:19.194Z,51.28
2018-06-17T21:00:47.264Z,51.34
2018-06-17T21:03:15.372Z,52.42
2018-06-17T21:05:43.459Z,52.18
2018-06-17T21:08:11.540Z,52.96
2018-06-17T21:10:39.760Z,52.42
2018-06-17T21:13:07.822Z,52.99
2018-06-17T21:15:35.877Z,53.10
2018-06-17T21:18:04.571Z,53.34
2018-06-17T21:20:37.853Z,53.19
2018-06-17T21:23:11.195Z,54.39
2018-06-17T21:25:44.751Z,54.80
2018-06-17T21:28:14.020Z,56.07
2018-06-17T21:30:42.157Z,55.82
2018-06-17T21:33:10.395Z,55.61
2018-06-17T21:35:38.632Z,56.37
2018-06-17T21:38:06.784Z,56.74
2018-06-17T21:40:34.848Z,56.08
2018-06-17T21:43:03.070Z,56.25
2018-06-17T21:45:31.367Z,55.91
2018-06-17T21:47:59.451Z,55.97
2018-06-17T21:50:27.669Z,56.56
2018-06-17T21:52:55.709Z,55.57
2018-06-17T21:55:23.773Z,55.74
2018-06-17T21:57:51.934Z,55.48
2018-06-17T22:00:20.154Z,55.04
2018-06-17T22:02:48.207Z,56.39
2018-06-17T22:05:16.263Z,55.27
2018-06-17T22:07:49.739Z,53.97
2018-06-17T22:10:23.319Z,55.01
2018-06-17T22:12:56.801Z,55.21
2018-06-17T22:15:30.239Z,55.10
2018-06-17T22:17:58.335Z,55.45
2018-06-17T22:20:26.379Z,55.75
2018-06-17T22:22:54.419Z,56.13
2018-06-17T22:25:22.475Z,56.20
2018-06-17T22:27:50.586Z,56.29
2018-06-17T22:30:18.655Z,56.06
2018-06-17T22:32:46.889Z,55.58
2018-06-17T22:35:15.063Z,55.23
2018-06-17T22:37:43.107Z,56.17
2018-06-17T22:40:12.090Z,55.26
2018-06-17T22:42:40.398Z,55.59
2018-06-17T22:45:08.665Z,55.06
2018-06-17T22:47:42.331Z,56.16
2018-06-17T22:50:10.621Z,55.56
2018-06-17T22:52:51.127Z,56.06
2018-06-17T22:55:19.259Z,56.07
2018-06-17T22:57:52.715Z,56.27
2018-06-17T23:00:26.247Z,55.63
2018-06-17T23:02:59.791Z,56.12
2018-06-17T23:05:33.119Z,56.04
2018-06-17T23:08:06.555Z,55.32
2018-06-17T23:10:34.741Z,55.83
2018-06-17T23:13:02.840Z,57.17
2018-06-17T23:15:31.276Z,56.31
2018-06-17T23:17:59.389Z,56.24
2018-06-17T23:20:27.630Z,55.96
2018-06-17T23:22:56.077Z,56.27
2018-06-17T23:25:24.279Z,56.41
2018-06-17T23:27:52.439Z,56.97
2018-06-17T23:30:20.694Z,56.84
2018-06-17T23:32:48.776Z,56.63
2018-06-17T23:35:17.057Z,57.06
2018-06-17T23:37:45.299Z,56.46
2018-06-17T23:40:13.617Z,56.44
2018-06-17T23:42:42.234Z,56.65
2018-06-17T23:45:10.526Z,56.08
2018-06-17T23:47:44.140Z,56.53
2018-06-17T23:50:17.628Z,57.18
2018-06-17T23:52:51.020Z,56.82
2018-06-17T23:55:24.433Z,56.79
2018-06-17T23:57:52.751Z,56.35
